Latest Weather Observations for Cape Wessel

IDD60801

Issued at 4:05 pm CST Tuesday 2 September 2014 (issued every 30 minutes, with the page automatically refreshed every 10 minutes)

About weather observations | Map of weather stations | Latest weather observations for NT | Other Formats
Station Details ID: 200786 Name: CAPE WESSEL Lat: -11.00 Lon: 136.76 Height: 18.0 m
Data from the previous 72 hours. | See also: Recent months for locations in Northern Territory
Date/Time
CST
Temp
°C
App
Temp
°C
Dew
Point
Rel
Hum
%
Delta-T
°C
Wind Press
QNH
hPa
Press
MSL
hPa
Rain
since 9 am
mm
Dir
 
Spd
km/h
Gust
km/h
Spd
kts
Gust
kts
02/04:00pm 27.8 27.8 20.9 66 4.6 ESE 22 30 12 16 1012.5 - 0.0
02/03:30pm 29.1 29.3 21.3 62 5.2 ESE 22 28 12 15 1012.7 - 0.0
02/03:00pm 29.5 29.1 20.9 60 5.7 ESE 24 32 13 17 1012.6 1012.5 0.0
02/02:30pm 29.8 29.6 20.6 57 6.1 ESE 22 30 12 16 1012.7 - 0.0
02/02:00pm 30.2 29.7 20.7 56 6.3 ESE 24 30 13 16 1013.1 - 0.0
02/01:30pm 29.5 28.0 19.5 55 6.5 SE 26 32 14 17 1013.3 - 0.0
02/01:00pm 30.4 30.0 20.9 57 6.3 SE 24 32 13 17 1013.5 - 0.0
02/12:30pm 29.9 28.8 20.2 56 6.4 ESE 26 33 14 18 1014.0 - 0.0
02/12:00pm 30.2 29.7 20.7 56 6.3 ESE 24 30 13 16 1014.3 1014.2 0.0
02/11:30am 29.7 28.7 20.5 57 6.1 ESE 26 32 14 17 1014.7 - 0.0
02/11:00am 29.3 28.8 20.7 59 5.7 ESE 24 30 13 16 1014.9 - 0.0
02/10:30am 28.7 28.3 21.0 63 5.1 E 24 30 13 16 1015.3 - 0.0
02/10:00am 28.4 28.8 21.7 67 4.5 ESE 22 28 12 15 1015.4 - 0.0
02/09:30am 27.7 28.5 21.7 70 4.0 E 20 28 11 15 1015.4 - 0.0
02/09:00am 27.6 29.0 22.5 74 3.4 E 19 22 10 12 1015.3 1015.2 0.0
02/08:30am 26.7 28.1 22.5 78 2.8 ESE 19 22 10 12 1015.2 - 0.0
02/08:00am 25.7 27.0 22.4 82 2.2 ESE 19 22 10 12 1015.0 - 0.0
02/07:30am 24.6 25.9 22.3 87 1.5 ESE 19 24 10 13 1014.8 - 0.0
02/07:00am 23.6 24.1 22.0 91 1.1 SE 22 26 12 14 1014.5 - 0.0
02/06:30am 23.1 23.3 21.4 90 1.1 SE 22 28 12 15 1014.0 - 0.0
02/06:00am 23.2 23.5 21.5 90 1.1 SSE 22 28 12 15 1013.7 1013.6 0.0
02/05:30am 23.4 23.8 21.7 90 1.1 SSE 22 30 12 16 1013.5 - 0.0
02/05:00am 23.4 23.7 21.5 89 1.3 SSE 22 28 12 15 1013.5 - 0.0
02/04:30am 23.5 24.1 21.4 88 1.4 SSE 20 28 11 15 1013.5 - 0.0
02/04:00am 23.6 23.9 21.5 88 1.4 SSE 22 26 12 14 1013.5 - 0.0
02/03:30am 23.5 23.6 21.2 87 1.5 SSE 22 26 12 14 1013.5 - 0.0
02/03:00am 23.7 23.9 21.4 87 1.5 SSE 22 28 12 15 1013.8 1013.7 0.0
02/02:30am 24.0 24.1 21.9 88 1.4 SSE 24 30 13 16 1013.9 - 0.0
02/02:00am 23.7 23.2 21.4 87 1.5 SSE 26 32 14 17 1013.9 - 0.0
02/01:30am 23.6 23.4 21.3 87 1.5 SSE 24 30 13 16 1013.8 - 0.0
02/01:00am 23.7 23.6 21.4 87 1.5 SSE 24 30 13 16 1014.0 - 0.0
02/12:30am 23.8 23.7 21.5 87 1.5 SSE 24 30 13 16 1014.3 - 0.0
02/12:00am 23.8 23.7 21.5 87 1.5 SE 24 30 13 16 1014.4 1014.3 0.0
 
Date/Time
CST
Temp
°C
App
Temp
°C
Dew
Point
Rel
Hum
%
Delta-T
°C
Wind Press
QNH
hPa
Press
MSL
hPa
Rain
since 9 am
mm
Dir
 
Spd
km/h
Gust
km/h
Spd
kts
Gust
kts
01/11:30pm 24.0 23.5 21.5 86 1.7 SE 26 30 14 16 1014.5 - 0.0
01/11:00pm 24.1 23.7 21.6 86 1.7 SE 26 30 14 16 1014.6 - 0.0
01/10:30pm 24.2 23.8 21.7 86 1.7 SE 26 30 14 16 1014.5 - 0.0
01/10:00pm 24.2 23.7 21.5 85 1.8 SE 26 32 14 17 1014.4 - 0.0
01/09:30pm 24.1 23.3 21.6 86 1.7 ESE 28 32 15 17 1014.1 - 0.0
01/09:00pm 24.3 23.7 22.0 87 1.5 ESE 28 32 15 17 1013.8 1013.7 0.0
01/08:30pm 24.4 24.6 22.1 87 1.5 ESE 24 32 13 17 1013.6 - 0.0
01/08:00pm 24.5 24.3 22.0 86 1.7 ESE 26 33 14 18 1013.3 - 0.0
01/07:30pm 24.6 23.5 21.7 84 1.9 ESE 30 33 16 18 1012.8 - 0.0
01/07:00pm 25.1 24.5 22.0 83 2.1 ESE 28 35 15 19 1012.6 - 0.0
01/06:30pm 25.0 24.9 21.5 81 2.3 SE 24 30 13 16 1012.5 - 0.0
01/06:00pm 25.2 24.0 20.9 77 2.8 SE 28 35 15 19 1012.2 1012.1 0.0
01/05:30pm 25.9 24.3 20.7 73 3.4 SE 30 35 16 19 1012.1 - 0.0
01/05:00pm 26.8 24.7 20.6 69 4.1 SE 32 37 17 20 1011.9 - 0.0
01/04:30pm 27.4 25.8 20.7 67 4.4 SE 30 35 16 19 1011.7 - 0.0
01/04:00pm 27.9 26.3 20.7 65 4.8 SE 30 35 16 19 1011.6 - 0.0
01/03:30pm 28.7 27.4 20.7 62 5.3 SE 28 37 15 20 1011.7 - 0.0
01/03:00pm 28.9 26.7 20.4 60 5.6 SE 32 37 17 20 1011.7 1011.6 0.0
01/02:30pm 29.7 28.1 20.8 58 5.9 SE 30 35 16 19 1012.1 - 0.0
01/02:00pm 29.9 28.0 20.2 56 6.4 SE 30 37 16 20 1012.3 - 0.0
01/01:30pm 30.0 28.4 20.0 55 6.6 SE 28 33 15 18 1012.5 - 0.0
01/01:00pm 30.1 28.5 20.1 55 6.6 SE 28 33 15 18 1013.0 - 0.0
01/12:30pm 29.4 27.4 19.1 54 6.7 ESE 28 33 15 18 1013.3 - 0.0
01/12:00pm 30.1 28.8 19.8 54 6.8 SE 26 32 14 17 1013.6 1013.5 0.0
01/11:30am 30.6 30.4 20.5 54 6.7 SE 22 28 12 15 1014.1 - 0.0
01/11:00am 29.7 29.4 20.3 57 6.2 SE 22 30 12 16 1014.5 - 0.0
01/10:30am 29.2 28.9 20.4 59 5.8 SE 22 28 12 15 1014.8 - 0.0
01/10:00am 29.0 29.1 20.4 59 5.7 SE 20 24 11 13 1014.9 - 0.0
01/09:30am 28.1 28.2 20.4 63 5.1 SE 20 26 11 14 1014.9 - 0.0
01/09:00am 27.5 28.0 20.8 67 4.4 SE 19 24 10 13 1014.8 1014.7 0.0
01/08:30am 26.7 27.3 21.0 71 3.8 SE 19 22 10 12 1014.4 - 0.0
01/08:00am 25.8 26.8 21.0 75 3.2 SE 17 20 9 11 1014.1 - 0.0
01/07:30am 24.4 24.7 20.7 80 2.4 SE 20 24 11 13 1013.7 - 0.0
01/07:00am 23.1 23.2 20.4 85 1.8 SE 20 24 11 13 1013.2 - 0.0
01/06:30am 22.7 22.9 20.2 86 1.6 SSE 19 24 10 13 1012.9 - 0.0
01/06:00am 22.7 22.7 20.2 86 1.6 SE 20 24 11 13 1012.9 1012.8 0.0
01/05:30am 22.9 22.6 20.4 86 1.6 SE 22 28 12 15 1012.6 - 0.0
01/05:00am 22.9 22.6 20.4 86 1.6 SSE 22 28 12 15 1012.6 - 0.0
01/04:30am 23.1 22.7 20.2 84 1.9 SSE 22 28 12 15 1012.5 - 0.0
01/04:00am 23.0 22.5 20.0 83 1.9 SSE 22 28 12 15 1012.5 - 0.0
01/03:30am 23.2 22.5 20.2 83 1.9 SSE 24 30 13 16 1012.5 - 0.0
01/03:00am 23.2 22.4 20.0 82 2.1 SSE 24 32 13 17 1012.6 1012.5 0.0
01/02:30am 23.3 22.8 19.9 81 2.2 SSE 22 28 12 15 1012.9 - 0.0
01/02:00am 23.4 22.5 19.8 80 2.3 SSE 24 30 13 16 1013.2 - 0.0
01/01:30am 23.6 22.8 20.1 81 2.3 SE 24 30 13 16 1013.7 - 0.0
01/01:00am 23.7 22.5 20.0 80 2.4 SE 26 32 14 17 1013.8 - 0.0
01/12:30am 23.7 22.5 20.0 80 2.4 SE 26 32 14 17 1013.8 - 0.0
01/12:00am 24.0 22.5 20.3 80 2.4 SE 28 33 15 18 1013.9 1013.8 0.0
 
Date/Time
CST
Temp
°C
App
Temp
°C
Dew
Point
Rel
Hum
%
Delta-T
°C
Wind Press
QNH
hPa
Press
MSL
hPa
Rain
since 9 am
mm
Dir
 
Spd
km/h
Gust
km/h
Spd
kts
Gust
kts
31/11:30pm 24.0 22.6 20.5 81 2.3 SE 28 35 15 19 1013.9 - 0.0
31/11:00pm 24.0 22.2 20.3 80 2.4 SE 30 35 16 19 1013.8 - 0.0
31/10:30pm 24.1 22.3 20.4 80 2.4 SE 30 37 16 20 1013.6 - 0.0
31/10:00pm 24.2 22.4 20.3 79 2.5 SE 30 37 16 20 1013.5 - 0.0
31/09:30pm 24.2 22.6 20.7 81 2.3 SE 30 39 16 21 1013.5 - 0.0
31/09:00pm 24.3 23.6 21.0 82 2.2 SE 26 33 14 18 1013.3 1013.2 0.0
31/08:30pm 24.3 23.6 21.0 82 2.2 SE 26 32 14 17 1012.9 - 0.0
31/08:00pm 24.4 23.6 20.9 81 2.3 ESE 26 32 14 17 1012.5 - 0.0
31/07:30pm 24.4 23.9 20.7 80 2.4 ESE 24 30 13 16 1012.1 - 0.0
31/07:00pm 24.4 23.4 20.5 79 2.5 ESE 26 32 14 17 1011.7 - 0.0
31/06:30pm 24.5 23.9 20.4 78 2.7 ESE 24 32 13 17 1011.4 - 0.0
31/06:00pm 25.2 24.6 20.5 75 3.1 ESE 24 32 13 17 1011.1 1011.0 0.0
31/05:30pm 25.9 24.8 20.2 71 3.7 ESE 26 32 14 17 1010.9 - 0.0
31/05:00pm 26.5 25.6 20.6 70 3.9 ESE 26 33 14 18 1010.7 - 0.0
31/04:30pm 27.4 26.7 21.0 68 4.2 ESE 26 32 14 17 1010.6 - 0.0
31/04:00pm 28.1 27.0 21.1 65 4.7 SE 28 32 15 17 1010.7 - 0.0
31/03:30pm 28.7 27.8 21.5 65 4.8 SE 28 35 15 19 1010.6 - 0.0
31/03:00pm 29.1 28.3 21.6 64 5.0 SE 28 35 15 19 1010.7 1010.6 0.0
31/02:30pm 29.0 27.9 21.0 62 5.3 SE 28 33 15 18 1010.9 - 0.0
31/02:00pm 29.5 28.1 21.2 61 5.5 SE 30 35 16 19 1011.1 - 0.0
31/01:30pm 29.5 28.5 21.2 61 5.5 SE 28 35 15 19 1011.6 - 0.0
31/01:00pm 29.3 28.0 20.7 59 5.7 SE 28 35 15 19 1012.0 - 0.0
31/12:30pm 29.6 28.6 21.3 61 5.6 SE 28 33 15 18 1012.4 - 0.0
31/12:00pm 28.9 27.6 20.6 61 5.5 ESE 28 35 15 19 1012.8 1012.7 0.0
31/11:30am 28.8 27.3 20.3 60 5.6 ESE 28 33 15 18 1013.2 - 0.0
31/11:00am 28.7 27.3 20.4 60 5.5 ESE 28 33 15 18 1013.6 - 0.0
31/10:30am 28.2 26.8 20.5 63 5.1 SE 28 32 15 17 1014.1 - 0.0
31/10:00am 28.1 27.7 20.9 65 4.8 SE 24 30 13 16 1014.5 - 0.0
31/09:30am 27.3 27.1 20.6 67 4.4 ESE 22 28 12 15 1014.7 - 0.0
31/09:00am 27.4 28.0 21.4 70 4.0 SE 20 28 11 15 1014.5 1014.4 0.0
31/08:30am 26.2 26.5 20.7 71 3.6 SE 20 26 11 14 1014.1 - 0.0
31/08:00am 25.4 25.8 20.9 76 3.0 SE 20 26 11 14 1013.9 - 0.0
31/07:30am 24.4 24.7 20.7 80 2.4 ESE 20 26 11 14 1013.7 - 0.0
31/07:00am 23.4 23.5 20.3 83 2.0 ESE 20 24 11 13 1013.4 - 0.0
31/06:30am 22.9 22.9 20.1 84 1.8 SE 20 26 11 14 1013.3 - 0.0
31/06:00am 22.9 22.4 19.9 83 1.9 SE 22 26 12 14 1013.0 1012.9 0.0
31/05:30am 23.0 23.0 20.1 84 1.9 SE 20 26 11 14 1013.1 - 0.0
31/05:00am 23.1 22.7 20.1 83 1.9 SE 22 26 12 14 1012.9 - 0.0
31/04:30am 23.1 22.7 20.1 83 1.9 SE 22 28 12 15 1012.7 - 0.0
31/04:00am 23.1 22.7 20.1 83 1.9 SSE 22 28 12 15 1012.7 - 0.0
31/03:30am 23.2 23.1 20.0 82 2.1 SSE 20 26 11 14 1012.4 - 0.0
31/03:00am 23.2 22.6 19.8 81 2.2 SE 22 26 12 14 1012.5 1012.4 0.0
31/02:30am 23.3 22.7 19.7 80 2.3 SE 22 28 12 15 1012.7 - 0.0
31/02:00am 23.4 22.9 20.0 81 2.2 SE 22 28 12 15 1012.8 - 0.0
31/01:30am 23.4 23.3 20.0 81 2.2 SE 20 26 11 14 1013.1 - 0.0
31/01:00am 23.5 22.6 19.8 80 2.4 SE 24 30 13 16 1013.1 - 0.0
31/12:30am 23.7 22.9 20.0 80 2.4 SE 24 30 13 16 1013.5 - 0.0
31/12:00am 23.7 22.4 19.8 79 2.5 SE 26 30 14 16 1013.6 1013.5 0.0
 
Date/Time
CST
Temp
°C
App
Temp
°C
Dew
Point
Rel
Hum
%
Delta-T
°C
Wind Press
QNH
hPa
Press
MSL
hPa
Rain
since 9 am
mm
Dir
 
Spd
km/h
Gust
km/h
Spd
kts
Gust
kts
30/11:30pm 23.9 22.7 20.0 79 2.5 SE 26 32 14 17 1013.8 - 0.0
30/11:00pm 24.0 22.3 19.9 78 2.6 ESE 28 33 15 18 1013.6 - 0.0
30/10:30pm 24.0 22.3 19.9 78 2.6 ESE 28 32 15 17 1013.6 - 0.0
30/10:00pm 24.1 23.4 20.2 79 2.5 ESE 24 32 13 17 1013.6 - 0.0
30/09:30pm 24.2 22.6 20.1 78 2.7 ESE 28 33 15 18 1013.7 - 0.0
30/09:00pm 24.2 23.0 20.1 78 2.7 ESE 26 32 14 17 1013.6 1013.5 0.0
30/08:30pm 24.3 22.8 20.2 78 2.7 ESE 28 33 15 18 1013.4 - 0.0
30/08:00pm 24.4 23.4 20.5 79 2.5 ESE 26 33 14 18 1013.1 - 0.0
30/07:30pm 24.4 23.7 20.3 78 2.7 ESE 24 30 13 16 1012.8 - 0.0
30/07:00pm 24.4 23.1 19.9 76 2.9 ESE 26 32 14 17 1012.6 - 0.0
30/06:30pm 24.5 23.7 20.0 76 2.9 ESE 24 30 13 16 1012.2 - 0.0
30/06:00pm 24.9 24.0 19.9 74 3.2 ESE 24 30 13 16 1011.8 1011.7 0.0
30/05:30pm 25.7 25.6 20.0 71 3.7 ESE 20 26 11 14 1011.5 - 0.0
30/05:00pm 27.0 26.4 20.6 68 4.2 SE 24 28 13 15 1011.3 - 0.0
30/04:30pm 27.5 26.8 20.3 65 4.7 SE 24 30 13 16 1011.4 - 0.0

Other Formats:

Comma delimited format used in spreadsheet applications
http://www.bom.gov.au/fwo/IDD60801/IDD60801.94147.axf

JavaScript Object Notation format (JSON) in row-major order
http://www.bom.gov.au/fwo/IDD60801/IDD60801.94147.json